Thursday, May 26, 2016
06:52 UTC
  |  Log In   |  Register Free
Airport Search:

New Richmond Regional Airport
(KRNH)

New Richmond Regional Airport Diagram
No Airport Diagram Available

FAA data valid effective Mar 31 2016 - May 26 2016 (unless otherwise noted).

 
 
 
 
 
 
 
 
 
 
 
 
 
 
Current Aviation Weather for KRNH

Weather Summary


The most recent METAR observation for RNH was updated at: 12:55 UTC
METAR for KRNH is not available. Closest METAR is for KOEO
KRNH  (most recent observation was updatred at 26:06 UTC)
260640Z AUTO 00000KT 2 1/2SM BR 17/17 A2980 RMK AO2 SKY OBSCURED T01650165

KOEO  (11.6 nm SE)   (most recent observation was updated at 26:06 UTC)
260635Z AUTO 14006KT 7SM OVC003 17/17 A2982 RMK AO2 T01730173

K21D  (16.2 nm NE)   (most recent observation was updated at 26:06 UTC)
260634Z AUTO 08003KT 10SM CLR 17/17 A2980 RMK AO2 LTG DSNT SW

TAF for KRNH is not available.
KRNH
260533Z 2606/2706 14005KT 1SM BR BKN002 FM260800 VRB03KT 1/2SM FG VV001 FM261300 22009KT P6SM FEW200 FM270000 VRB03KT P6SM SCT050 OVC100

KMSP  (33.1 nm NE)   (most recent observation was updatred at 26:05 UTC)
260520Z 2606/2712 16007KT P6SM SCT250 FM260730 16005KT 6SM -SHRA BR VCTS SCT020 BKN035CB FM261000 19004KT P6SM SCT020 BKN035 FM261400 24008KT P6SM SCT250 FM270300 23005KT P6SM BKN050 OVC200 PROB30 2703/2707 -TSRA BKN020CB
GlobalAir.com is loading additional information.
 Current Weather at RNH
63.0 F° (17.2 C°)

Southeast winds at 8.1 mph
Pressure:
29.85 in
Humidity:
100%
Wind:
Southeast at 8.1 mph
Dew Point:
63.0 F° (17.2 C°)
Visibility:
0.75 mi
RNH NOAA Radar




Find All Airport Services Find A Hotel Find A Rental Car Find A Golf Course Find A Restaurant $100 Hamburger



Airport Weather Forecast for KRNH

Translated METAR for KRNH (0640 UTC)
METAR:
KRNH 260640Z AUTO 00000KT 2 1/2SM BR 17/17 A2980 RMK AO2 SKY OBSCURED T01650165
Conditions at:
KRNH (New Richmond Rgnl, WI) observed 0640 UTC 26 May 2016
Temperature:
17°C (62.6°F)
Dewpoint:
17°C (62.6°F) [RH = 100]
Pressure:
29.8 inches Hg (1009.1 mb)
Winds:
from the N (000 degrees) at 0 mph (0 knots: 0 m/s)
Visibility:
2.50 mile(s)
Ceiling:
at least 12,000 feet AGL
Clouds:
not reported - refer to area weather report
Remarks:
site is un-manned
site is automated and HAS a precipitation sensor

Translated TAF for KRNH (New Richmond Rgnl, WI) (0533 UTC)
TAF text:
KRNH 260533Z 2606/2706 14005KT 1SM BR BKN002
Forecast period:
Thursday May 26 2016 06:00 UTC - Friday May 27 2016 06:00 UTC
Forecast type:
FROM: standard forecast or significant change
Winds:
from the SE (140 degrees) at 5.8 mph (5 knots: 2.6 m/s)
Visibility:
1 mile(s) (1.6 km)
Ceiling:
200 feet AGL
Clouds:
Broken Cloud Cover at 200 feet AGL
Weather:
Moderate Mist
TAF text:
FM260800 VRB03KT 1/2SM FG VV001
Forecast period:
Thursday May 26 2016 08:00 UTC - Thursday May 26 2016 13:00 UTC
Forecast type:
FROM: standard forecast or significant change
Winds:
variable wind direction at 3.5 mph (3 knots: 1.5 m/s)
Visibility:
0.5 mile(s) (0.8 km)
Ceiling:
Clouds:
Weather:
Moderate Fog
TAF text:
FM261300 22009KT P6SM FEW200
Forecast period:
Thursday May 26 2016 13:00 UTC - Friday May 27 2016 00:00 UTC
Forecast type:
FROM: standard forecast or significant change
Winds:
from the SW (220 degrees) at 10.4 mph (9 knots: 4.6 m/s)
Visibility:
6 or more mile(s) (9.7+ km)
Ceiling:
at least 12,000 feet AGL
Clouds:
Few Clouds at 20,000 feet AGL
Weather:
no significant weather observed at this time
TAF text:
FM270000 VRB03KT P6SM SCT050 OVC100
Forecast period:
Friday May 27 2016 00:00 UTC - Friday May 27 2016 06:00 UTC
Forecast type:
FROM: standard forecast or significant change
Winds:
variable wind direction at 3.5 mph (3 knots: 1.5 m/s)
Visibility:
6 or more mile(s) (9.7+ km)
Ceiling:
10,000 feet AGL
Clouds:
Scattered Clouds at 5,000 feet AGL
Overcast Skies at 10,000 feet AGL
Weather:
no significant weather observed at this time
FBO's on the Field
FBO Company Facility Photos Services Transportation Aviation Fuel Prices: Prices include tax
Catering Weather Repair Courtesy Rental Type 100LL JetA JetA+ MOGAS 8087
 
Griggs Aviation

This FBO has not yet been rated
FS:Independent
Last Updated: May-18
Login to update fuel prices
SS:
Contact Griggs AviationMore FBO Information
 
Add another FBO Facility Photos Catering Weather Repair Courtesy Rental Type 100LL JetA JetA+ MOGAS 8087
Services Transportation Aviation Fuel Prices: Prices include tax


model-print
model-print
model-print
model-print